createdAt,value
2023-01-13T00:01:00.333Z,67.33
2023-01-13T00:03:26.877Z,67.41
2023-01-13T00:05:53.453Z,67.38
2023-01-13T00:08:19.978Z,67.76
2023-01-13T00:10:48.477Z,67.52
2023-01-13T00:13:15.018Z,67.87
2023-01-13T00:15:41.638Z,68.17
2023-01-13T00:18:08.279Z,67.84
2023-01-13T00:20:35.030Z,68.11
2023-01-13T00:23:01.595Z,68.58
2023-01-13T00:25:28.119Z,68.47
2023-01-13T00:27:54.662Z,68.87
2023-01-13T00:30:21.268Z,69.03
2023-01-13T00:32:47.806Z,69.23
2023-01-13T00:35:14.362Z,70.18
2023-01-13T00:37:41.248Z,70.76
2023-01-13T00:40:08.585Z,70.52
2023-01-13T00:42:53.910Z,71.29
2023-01-13T00:45:20.507Z,71.97
2023-01-13T00:47:47.054Z,72.38
2023-01-13T00:50:13.591Z,73.06
2023-01-13T00:52:42.269Z,73.87
2023-01-13T00:55:09.169Z,73.97
2023-01-13T00:57:35.749Z,73.77
2023-01-13T01:00:02.600Z,74.08
2023-01-13T01:02:29.182Z,74.26
2023-01-13T01:04:55.771Z,73.96
2023-01-13T01:07:22.508Z,73.90
2023-01-13T01:09:49.764Z,73.58
2023-01-13T01:12:16.327Z,73.82
2023-01-13T01:14:42.860Z,73.50
2023-01-13T01:17:09.488Z,74.88
2023-01-13T01:19:38.824Z,74.98
2023-01-13T01:22:05.393Z,74.39
2023-01-13T01:24:31.945Z,74.50
2023-01-13T01:26:58.496Z,74.46
2023-01-13T01:29:25.064Z,74.09
2023-01-13T01:31:51.655Z,73.39
2023-01-13T01:34:18.253Z,73.16
2023-01-13T01:36:44.804Z,72.95
2023-01-13T01:39:11.564Z,72.89
2023-01-13T01:41:38.254Z,72.27
2023-01-13T01:44:27.634Z,72.18
2023-01-13T01:46:55.821Z,71.82
2023-01-13T01:49:33.796Z,71.84
2023-01-13T01:52:06.589Z,71.72
2023-01-13T01:54:54.719Z,71.33
2023-01-13T01:57:27.261Z,71.21
2023-01-13T01:59:54.101Z,70.99
2023-01-13T02:02:20.821Z,71.32
2023-01-13T02:04:51.804Z,70.96
2023-01-13T02:07:22.720Z,71.01
2023-01-13T02:09:49.843Z,70.64
2023-01-13T02:12:35.213Z,70.58
2023-01-13T02:15:09.200Z,70.21
2023-01-13T02:17:53.291Z,70.14
2023-01-13T02:20:38.487Z,70.46
2023-01-13T02:23:44.843Z,70.25
2023-01-13T02:26:57.516Z,69.72
2023-01-13T02:29:55.328Z,69.71
2023-01-13T02:32:29.979Z,69.30
2023-01-13T02:35:12.514Z,69.57
2023-01-13T02:37:42.289Z,69.74
2023-01-13T02:40:17.592Z,69.63
2023-01-13T02:43:20.420Z,69.25
2023-01-13T02:45:58.917Z,68.82
2023-01-13T02:48:29.662Z,68.60
2023-01-13T02:51:02.593Z,68.54
2023-01-13T02:53:34.717Z,68.50
2023-01-13T02:56:04.897Z,68.93
2023-01-13T02:58:33.266Z,68.85
2023-01-13T03:00:59.702Z,69.07
2023-01-13T03:03:26.190Z,69.13
2023-01-13T03:06:00.565Z,68.96
2023-01-13T03:08:39.628Z,68.01
2023-01-13T03:11:09.094Z,68.48
2023-01-13T03:14:02.694Z,68.48
2023-01-13T03:16:40.723Z,68.43
2023-01-13T03:19:30.860Z,68.64
2023-01-13T03:22:11.914Z,68.42
2023-01-13T03:24:50.113Z,67.88
2023-01-13T03:27:34.262Z,67.99
2023-01-13T03:30:16.420Z,67.87
2023-01-13T03:32:46.696Z,68.06
2023-01-13T03:35:23.136Z,67.98
2023-01-13T03:38:00.303Z,67.99
2023-01-13T03:40:32.634Z,68.37
2023-01-13T03:43:42.914Z,68.12
2023-01-13T03:46:18.388Z,67.85
2023-01-13T03:48:46.268Z,67.83
2023-01-13T03:51:17.915Z,68.17
2023-01-13T03:53:50.846Z,67.76
2023-01-13T03:56:40.259Z,67.77
2023-01-13T03:59:11.607Z,67.91
2023-01-13T04:01:53.134Z,67.79
2023-01-13T04:04:28.932Z,68.16
2023-01-13T04:06:58.082Z,68.02
2023-01-13T04:09:36.663Z,68.34
2023-01-13T04:12:15.225Z,68.29
2023-01-13T04:14:42.779Z,68.02
2023-01-13T04:17:09.480Z,67.74
2023-01-13T04:19:35.918Z,67.56
2023-01-13T04:22:02.300Z,67.88
2023-01-13T04:24:28.725Z,67.81
2023-01-13T04:26:56.485Z,67.87
2023-01-13T04:29:23.166Z,67.71
2023-01-13T04:31:49.642Z,67.92
2023-01-13T04:34:16.288Z,67.23
2023-01-13T04:36:43.727Z,67.39
2023-01-13T04:39:10.102Z,67.44
2023-01-13T04:41:55.118Z,67.94
2023-01-13T04:44:21.485Z,68.14
2023-01-13T04:46:47.843Z,68.15
2023-01-13T04:49:14.345Z,67.83
2023-01-13T04:51:40.713Z,68.12
2023-01-13T04:54:07.151Z,67.59
2023-01-13T04:56:33.538Z,67.80
2023-01-13T04:58:59.933Z,68.09
2023-01-13T05:01:26.406Z,68.25
2023-01-13T05:03:52.876Z,68.06
2023-01-13T05:06:19.399Z,68.47
2023-01-13T05:08:45.784Z,68.30
2023-01-13T05:11:30.868Z,68.03
2023-01-13T05:14:15.734Z,68.08
2023-01-13T05:17:00.171Z,67.71
2023-01-13T05:19:28.435Z,67.91
2023-01-13T05:22:13.367Z,67.82
2023-01-13T05:24:59.263Z,67.56
2023-01-13T05:27:26.046Z,67.74
2023-01-13T05:29:52.747Z,67.46
2023-01-13T05:32:19.129Z,67.63
2023-01-13T05:34:45.483Z,67.72
2023-01-13T05:37:13.220Z,67.34
2023-01-13T05:39:58.728Z,67.61
2023-01-13T05:42:43.672Z,67.73
2023-01-13T05:45:11.437Z,67.45
2023-01-13T05:47:37.863Z,67.08
2023-01-13T05:50:04.648Z,67.80
2023-01-13T05:52:31.033Z,67.53
2023-01-13T05:54:57.491Z,67.44
2023-01-13T05:57:23.872Z,67.62
2023-01-13T05:59:50.342Z,67.50
2023-01-13T06:02:16.691Z,67.62
2023-01-13T06:04:43.176Z,67.86
2023-01-13T06:07:09.574Z,67.25
2023-01-13T06:09:35.993Z,67.57
2023-01-13T06:12:02.350Z,67.37
2023-01-13T06:14:39.937Z,67.49
2023-01-13T06:17:10.931Z,67.66
2023-01-13T06:19:37.712Z,67.51
2023-01-13T06:22:25.227Z,67.37
2023-01-13T06:24:54.052Z,67.37
2023-01-13T06:27:22.488Z,67.83
2023-01-13T06:29:49.575Z,67.74
2023-01-13T06:32:19.637Z,67.41
2023-01-13T06:34:50.166Z,67.57
2023-01-13T06:37:19.941Z,67.34
2023-01-13T06:39:46.518Z,67.75
2023-01-13T06:42:31.536Z,68.08
2023-01-13T06:44:57.965Z,67.81
2023-01-13T06:47:24.483Z,67.55
2023-01-13T06:49:50.915Z,67.71
2023-01-13T06:52:17.309Z,67.61
2023-01-13T06:54:43.746Z,67.24
2023-01-13T06:57:10.335Z,67.95
2023-01-13T06:59:36.734Z,67.31
2023-01-13T07:02:03.347Z,67.57
2023-01-13T07:04:29.879Z,67.53
2023-01-13T07:06:56.277Z,67.47
2023-01-13T07:09:22.806Z,67.59
2023-01-13T07:11:49.236Z,67.54
2023-01-13T07:14:34.431Z,67.53
2023-01-13T07:17:00.891Z,68.00
2023-01-13T07:19:27.296Z,68.14
2023-01-13T07:21:53.718Z,67.67
2023-01-13T07:24:20.579Z,67.52
2023-01-13T07:26:46.953Z,67.38
2023-01-13T07:29:13.887Z,67.39
2023-01-13T07:31:40.409Z,67.59
2023-01-13T07:34:07.385Z,67.69
2023-01-13T07:36:34.141Z,67.45
2023-01-13T07:39:00.786Z,66.85
2023-01-13T07:41:46.034Z,66.63
2023-01-13T07:44:12.516Z,66.78
2023-01-13T07:46:39.435Z,66.81
2023-01-13T07:49:08.266Z,66.59
2023-01-13T07:51:39.125Z,66.40
2023-01-13T07:54:06.145Z,66.66
2023-01-13T07:56:33.179Z,65.73
2023-01-13T07:59:00.775Z,65.63
2023-01-13T08:01:28.064Z,66.12
2023-01-13T08:03:56.185Z,66.03
2023-01-13T08:06:22.935Z,65.71
2023-01-13T08:08:49.377Z,65.66
2023-01-13T08:11:15.846Z,65.52
2023-01-13T08:13:42.240Z,65.17
2023-01-13T08:16:11.599Z,65.68
2023-01-13T08:18:38.717Z,65.45
2023-01-13T08:21:13.678Z,65.20
2023-01-13T08:23:41.826Z,65.68
2023-01-13T08:26:14.503Z,65.17
2023-01-13T08:28:41.042Z,65.67
2023-01-13T08:31:10.628Z,65.38
2023-01-13T08:33:37.643Z,65.21
2023-01-13T08:36:06.085Z,65.26
2023-01-13T08:38:33.140Z,65.15
2023-01-13T08:40:59.519Z,65.36
2023-01-13T08:43:26.051Z,65.37
2023-01-13T08:45:57.570Z,64.95
2023-01-13T08:48:24.137Z,64.94
2023-01-13T08:50:50.812Z,64.94
2023-01-13T08:53:17.222Z,65.34
2023-01-13T08:55:43.822Z,64.98
2023-01-13T08:58:15.589Z,64.92
2023-01-13T09:00:43.819Z,64.81
2023-01-13T09:03:10.460Z,64.90
2023-01-13T09:05:36.976Z,64.07
2023-01-13T09:08:03.719Z,64.59
2023-01-13T09:10:30.288Z,64.31
2023-01-13T09:13:11.927Z,64.57
2023-01-13T09:15:40.168Z,64.27
2023-01-13T09:18:06.678Z,63.91
2023-01-13T09:20:33.366Z,64.33
2023-01-13T09:22:59.937Z,64.23
2023-01-13T09:25:26.333Z,63.57
2023-01-13T09:27:52.694Z,65.49
2023-01-13T09:30:19.066Z,69.68
2023-01-13T09:32:45.469Z,73.77
2023-01-13T09:35:11.919Z,76.40
2023-01-13T09:37:40.638Z,77.62
2023-01-13T09:40:18.442Z,78.15
2023-01-13T09:43:20.000Z,79.09
2023-01-13T09:46:41.550Z,79.01
2023-01-13T09:49:20.821Z,79.91
2023-01-13T09:51:55.891Z,79.66
2023-01-13T09:54:32.279Z,80.21
2023-01-13T09:56:59.333Z,79.92
2023-01-13T09:59:34.574Z,79.52
2023-01-13T10:02:22.570Z,79.15
2023-01-13T10:05:21.936Z,78.82
2023-01-13T10:07:55.621Z,78.43
2023-01-13T10:10:34.836Z,78.57
2023-01-13T10:13:17.201Z,79.02
2023-01-13T10:15:52.661Z,78.02
2023-01-13T10:18:28.109Z,77.53
2023-01-13T10:21:08.311Z,77.69
2023-01-13T10:24:07.988Z,77.68
2023-01-13T10:27:00.320Z,77.36
2023-01-13T10:29:28.726Z,77.74
2023-01-13T10:31:56.718Z,78.53
2023-01-13T10:34:25.121Z,76.45
2023-01-13T10:37:11.259Z,76.88
2023-01-13T10:39:43.026Z,76.87
2023-01-13T10:42:15.280Z,75.91
2023-01-13T10:44:56.683Z,75.66
2023-01-13T10:47:35.878Z,75.98
2023-01-13T10:50:05.647Z,75.40
2023-01-13T10:52:37.822Z,75.81
2023-01-13T10:55:23.991Z,76.69
2023-01-13T10:57:50.529Z,75.79
2023-01-13T11:00:32.931Z,75.27
2023-01-13T11:03:27.928Z,75.35
2023-01-13T11:05:57.457Z,74.70
2023-01-13T11:08:25.732Z,74.80
2023-01-13T11:10:53.505Z,73.94
2023-01-13T11:13:31.205Z,73.73
2023-01-13T11:16:10.910Z,74.22
2023-01-13T11:19:02.777Z,74.25
2023-01-13T11:21:46.288Z,75.06
2023-01-13T11:24:20.659Z,74.79
2023-01-13T11:26:59.035Z,74.32
2023-01-13T11:30:00.161Z,74.32
2023-01-13T11:32:30.977Z,74.62
2023-01-13T11:35:03.092Z,73.07
2023-01-13T11:37:32.877Z,73.89
2023-01-13T11:40:18.571Z,73.14
2023-01-13T11:43:10.268Z,71.81
2023-01-13T11:45:42.766Z,72.03
2023-01-13T11:48:15.139Z,72.45
2023-01-13T11:50:51.091Z,72.41
2023-01-13T11:53:45.524Z,72.58
2023-01-13T11:56:43.935Z,71.55
2023-01-13T11:59:48.032Z,71.90
2023-01-13T12:02:28.852Z,71.50
2023-01-13T12:05:29.289Z,71.30
2023-01-13T12:08:02.796Z,71.63
2023-01-13T12:10:57.063Z,69.87
2023-01-13T12:13:29.646Z,69.88
2023-01-13T12:16:11.270Z,69.19
2023-01-13T12:19:01.857Z,68.90
2023-01-13T12:21:33.988Z,69.76
2023-01-13T12:24:18.276Z,68.85
2023-01-13T12:27:01.768Z,68.39
2023-01-13T12:29:37.500Z,67.13
2023-01-13T12:32:05.996Z,66.25
2023-01-13T12:34:53.942Z,66.35
2023-01-13T12:37:31.777Z,66.56
2023-01-13T12:40:18.774Z,66.55
2023-01-13T12:43:17.786Z,65.88
2023-01-13T12:45:44.453Z,66.60
2023-01-13T12:48:45.589Z,66.74
2023-01-13T12:51:26.032Z,67.02
2023-01-13T12:53:54.559Z,66.97
2023-01-13T12:56:35.410Z,66.91
2023-01-13T12:59:32.466Z,67.26
2023-01-13T13:02:10.994Z,67.06
2023-01-13T13:04:57.254Z,66.85
2023-01-13T13:07:45.348Z,67.27
2023-01-13T13:10:18.423Z,66.52
2023-01-13T13:13:03.151Z,66.82
2023-01-13T13:15:33.885Z,67.36
2023-01-13T13:18:27.404Z,66.75
2023-01-13T13:21:11.249Z,67.02
2023-01-13T13:23:51.211Z,66.74
2023-01-13T13:26:25.021Z,66.82
2023-01-13T13:29:12.888Z,67.14
2023-01-13T13:32:09.013Z,67.71
2023-01-13T13:34:44.060Z,67.56
2023-01-13T13:37:30.185Z,67.71
2023-01-13T13:40:15.879Z,67.78
2023-01-13T13:43:13.410Z,67.55
2023-01-13T13:46:09.308Z,67.00
2023-01-13T13:48:35.756Z,67.06
2023-01-13T13:51:20.418Z,67.17
2023-01-13T13:53:47.745Z,67.48
2023-01-13T13:56:21.548Z,68.06
2023-01-13T13:58:49.380Z,67.18
2023-01-13T14:01:37.656Z,67.12
2023-01-13T14:04:21.729Z,67.49
2023-01-13T14:06:54.552Z,66.58
2023-01-13T14:09:22.249Z,66.24
2023-01-13T14:12:00.813Z,66.45
2023-01-13T14:14:28.223Z,66.72
2023-01-13T14:16:58.548Z,66.19
2023-01-13T14:19:35.916Z,65.64
2023-01-13T14:22:04.814Z,65.80
2023-01-13T14:24:32.689Z,64.97
2023-01-13T14:27:16.133Z,64.81
2023-01-13T14:29:43.122Z,64.68
2023-01-13T14:32:15.341Z,65.17
2023-01-13T14:34:41.729Z,65.25
2023-01-13T14:37:35.021Z,64.63
2023-01-13T14:40:01.708Z,64.15
2023-01-13T14:42:29.696Z,64.78
2023-01-13T14:44:56.436Z,64.74
2023-01-13T14:47:27.909Z,64.36
2023-01-13T14:50:03.103Z,64.14
2023-01-13T14:52:32.809Z,64.24
2023-01-13T14:55:09.123Z,64.08
2023-01-13T14:57:41.394Z,64.17
2023-01-13T15:00:13.964Z,63.79
2023-01-13T15:02:48.950Z,63.54
2023-01-13T15:05:28.953Z,63.69
2023-01-13T15:08:12.306Z,64.32
2023-01-13T15:11:00.519Z,63.61
2023-01-13T15:13:40.705Z,64.30
2023-01-13T15:16:16.917Z,65.56
2023-01-13T15:18:43.418Z,69.70
2023-01-13T15:21:10.443Z,73.82
2023-01-13T15:23:39.837Z,73.93
2023-01-13T15:26:18.387Z,75.98
2023-01-13T15:28:44.782Z,75.50
2023-01-13T15:31:11.324Z,77.25
2023-01-13T15:33:38.853Z,76.24
2023-01-13T15:36:11.562Z,75.45
2023-01-13T15:38:39.157Z,75.81
2023-01-13T15:41:05.676Z,75.71
2023-01-13T15:43:50.388Z,76.43
2023-01-13T15:46:38.743Z,75.92
2023-01-13T15:49:19.903Z,77.24
2023-01-13T15:51:47.654Z,77.86
2023-01-13T15:54:14.446Z,77.82
2023-01-13T15:56:42.060Z,77.94
2023-01-13T15:59:24.572Z,78.35
2023-01-13T16:01:51.121Z,77.45
2023-01-13T16:04:17.609Z,78.09
2023-01-13T16:06:44.636Z,78.77
2023-01-13T16:09:14.604Z,79.81
2023-01-13T16:11:41.014Z,78.98
2023-01-13T16:14:07.384Z,79.09
2023-01-13T16:16:33.845Z,78.85
2023-01-13T16:19:00.259Z,77.36
2023-01-13T16:21:26.650Z,77.60
2023-01-13T16:23:53.061Z,78.29
2023-01-13T16:26:22.388Z,77.59
2023-01-13T16:28:51.242Z,77.32
2023-01-13T16:31:22.156Z,77.55
2023-01-13T16:33:48.771Z,76.89
2023-01-13T16:36:17.491Z,75.90
2023-01-13T16:38:44.021Z,75.22
2023-01-13T16:41:10.476Z,74.61
2023-01-13T16:43:37.114Z,74.57
2023-01-13T16:46:17.472Z,73.09
2023-01-13T16:48:44.117Z,72.01
2023-01-13T16:51:10.507Z,72.91
2023-01-13T16:53:36.961Z,70.89
2023-01-13T16:56:03.335Z,71.49
2023-01-13T16:58:29.709Z,71.58
2023-01-13T17:00:56.194Z,70.49
2023-01-13T17:03:22.650Z,69.82
2023-01-13T17:05:49.051Z,70.35
2023-01-13T17:08:20.466Z,69.94
2023-01-13T17:10:47.622Z,70.63
2023-01-13T17:13:16.397Z,69.33
2023-01-13T17:15:43.417Z,68.37
2023-01-13T17:18:11.444Z,69.24
2023-01-13T17:20:37.800Z,69.25
2023-01-13T17:23:04.270Z,68.65
2023-01-13T17:25:30.671Z,67.89
2023-01-13T17:27:59.831Z,67.49
2023-01-13T17:30:26.312Z,67.52
2023-01-13T17:32:52.807Z,67.46
2023-01-13T17:35:24.455Z,66.97
2023-01-13T17:37:52.383Z,66.03
2023-01-13T17:40:18.853Z,65.89
2023-01-13T17:42:45.216Z,65.41
2023-01-13T17:45:12.424Z,65.43
2023-01-13T17:47:39.114Z,65.24
2023-01-13T17:50:06.054Z,64.77
2023-01-13T17:52:34.523Z,64.62
2023-01-13T17:55:01.059Z,64.54
2023-01-13T17:57:27.621Z,64.66
2023-01-13T17:59:54.027Z,64.53
2023-01-13T18:02:20.486Z,64.91
2023-01-13T18:04:46.921Z,64.14
2023-01-13T18:07:13.443Z,64.13
2023-01-13T18:09:39.844Z,64.39
2023-01-13T18:12:06.505Z,63.64
2023-01-13T18:14:32.922Z,64.47
2023-01-13T18:16:59.373Z,66.05
2023-01-13T18:19:44.438Z,68.46
2023-01-13T18:22:32.215Z,69.53
2023-01-13T18:25:17.341Z,68.88
2023-01-13T18:27:43.869Z,68.88
2023-01-13T18:30:12.250Z,68.58
2023-01-13T18:32:38.714Z,68.70
2023-01-13T18:35:10.147Z,67.55
2023-01-13T18:37:39.954Z,67.34
2023-01-13T18:40:07.866Z,67.74
2023-01-13T18:42:53.990Z,66.51
2023-01-13T18:45:26.376Z,67.51
2023-01-13T18:47:54.695Z,66.68
2023-01-13T18:50:22.349Z,67.47
2023-01-13T18:52:48.997Z,66.21
2023-01-13T18:55:15.700Z,66.28
2023-01-13T18:57:42.068Z,66.14
2023-01-13T19:00:11.632Z,65.47
2023-01-13T19:02:38.118Z,65.61
2023-01-13T19:05:05.111Z,65.48
2023-01-13T19:07:34.546Z,64.78
2023-01-13T19:10:00.960Z,65.59
2023-01-13T19:12:27.980Z,65.03
2023-01-13T19:14:55.526Z,64.25
2023-01-13T19:17:23.737Z,64.82
2023-01-13T19:19:53.477Z,64.26
2023-01-13T19:22:23.227Z,64.35
2023-01-13T19:24:50.543Z,64.91
2023-01-13T19:27:18.558Z,64.40
2023-01-13T19:29:52.335Z,64.30
2023-01-13T19:32:20.360Z,64.38
2023-01-13T19:34:47.801Z,64.55
2023-01-13T19:37:14.179Z,65.04
2023-01-13T19:39:40.835Z,65.05
2023-01-13T19:42:26.031Z,65.03
2023-01-13T19:45:11.133Z,65.32
2023-01-13T19:47:38.784Z,65.29
2023-01-13T19:50:09.153Z,65.03
2023-01-13T19:52:35.556Z,65.82
2023-01-13T19:55:02.161Z,66.04
2023-01-13T19:57:29.023Z,66.49
2023-01-13T19:59:55.370Z,65.89
2023-01-13T20:02:28.886Z,66.09
2023-01-13T20:04:57.216Z,66.24
2023-01-13T20:07:26.558Z,66.36
2023-01-13T20:09:53.812Z,66.38
2023-01-13T20:12:21.119Z,66.20
2023-01-13T20:14:48.031Z,66.59
2023-01-13T20:17:17.103Z,66.59
2023-01-13T20:19:43.758Z,66.69
2023-01-13T20:22:10.948Z,67.04
2023-01-13T20:24:37.513Z,67.19
2023-01-13T20:27:04.966Z,67.09
2023-01-13T20:29:31.892Z,67.38
2023-01-13T20:31:58.335Z,67.59
2023-01-13T20:34:25.796Z,67.72
2023-01-13T20:36:52.780Z,67.45
2023-01-13T20:39:27.143Z,67.76
2023-01-13T20:42:13.275Z,67.68
2023-01-13T20:44:40.255Z,68.08
2023-01-13T20:47:06.892Z,67.62
2023-01-13T20:49:36.051Z,67.42
2023-01-13T20:52:09.061Z,67.58
2023-01-13T20:54:36.937Z,67.72
2023-01-13T20:57:05.041Z,67.58
2023-01-13T20:59:31.497Z,67.57
2023-01-13T21:01:58.237Z,67.41
2023-01-13T21:04:24.673Z,67.85
2023-01-13T21:06:51.438Z,67.66
2023-01-13T21:09:18.127Z,67.53
2023-01-13T21:12:03.315Z,68.06
2023-01-13T21:14:48.065Z,67.95
2023-01-13T21:17:34.978Z,67.96
2023-01-13T21:20:04.083Z,67.97
2023-01-13T21:22:31.076Z,68.01
2023-01-13T21:24:58.426Z,68.42
2023-01-13T21:27:25.427Z,68.19
2023-01-13T21:29:51.847Z,68.69
2023-01-13T21:32:18.260Z,68.54
2023-01-13T21:34:44.793Z,68.17
2023-01-13T21:37:11.186Z,68.56
2023-01-13T21:39:38.721Z,68.67
2023-01-13T21:42:23.695Z,68.57
2023-01-13T21:45:08.605Z,68.05
2023-01-13T21:47:50.234Z,68.35
2023-01-13T21:50:19.673Z,68.28
2023-01-13T21:52:47.987Z,68.30
2023-01-13T21:55:25.229Z,68.67
2023-01-13T21:58:14.795Z,68.65
2023-01-13T22:00:43.257Z,68.68
2023-01-13T22:03:12.004Z,68.36
2023-01-13T22:05:38.834Z,68.80
2023-01-13T22:08:06.051Z,68.69
2023-01-13T22:10:32.531Z,69.39
2023-01-13T22:13:21.249Z,69.30
2023-01-13T22:15:47.933Z,69.72
2023-01-13T22:18:14.311Z,69.27
2023-01-13T22:20:42.055Z,69.79
2023-01-13T22:23:08.558Z,69.89
2023-01-13T22:25:34.934Z,69.79
2023-01-13T22:28:05.913Z,69.69
2023-01-13T22:30:33.132Z,69.57
2023-01-13T22:32:59.882Z,70.12
2023-01-13T22:35:26.306Z,69.89
2023-01-13T22:37:52.679Z,69.57
2023-01-13T22:40:19.046Z,69.53
2023-01-13T22:42:45.628Z,69.21
2023-01-13T22:45:14.303Z,69.64
2023-01-13T22:47:41.153Z,70.00
2023-01-13T22:50:08.990Z,70.45
2023-01-13T22:52:35.662Z,70.26
2023-01-13T22:55:02.112Z,70.28
2023-01-13T22:57:46.725Z,70.00
2023-01-13T23:00:14.851Z,69.52
2023-01-13T23:02:41.330Z,69.60
2023-01-13T23:05:08.121Z,69.92
2023-01-13T23:07:35.462Z,70.21
2023-01-13T23:10:02.483Z,70.16
2023-01-13T23:12:28.910Z,70.08
2023-01-13T23:14:55.286Z,70.16
2023-01-13T23:17:21.667Z,70.14
2023-01-13T23:19:48.015Z,70.02
2023-01-13T23:22:14.399Z,71.17
2023-01-13T23:24:40.848Z,71.96
2023-01-13T23:27:07.301Z,72.35
2023-01-13T23:29:33.682Z,72.37
2023-01-13T23:32:00.080Z,72.51
2023-01-13T23:34:26.515Z,72.58
2023-01-13T23:36:52.888Z,72.53
2023-01-13T23:39:19.310Z,72.02
2023-01-13T23:41:45.758Z,72.05
2023-01-13T23:44:12.202Z,71.86
2023-01-13T23:46:38.599Z,71.63
2023-01-13T23:49:05.017Z,71.12
2023-01-13T23:51:31.941Z,71.57
2023-01-13T23:53:59.335Z,71.12
2023-01-13T23:56:28.868Z,71.28
2023-01-13T23:58:56.057Z,71.56
